sensor_id;sensor_type;location;lat;lon;timestamp;P1;durP1;ratioP1;P2;durP2;ratioP2
45836;SDS011;31548;51.420;-0.040;2023-05-07T00:01:52;4.20;;;1.45;;
45836;SDS011;31548;51.420;-0.040;2023-05-07T00:04:19;3.50;;;1.88;;
45836;SDS011;31548;51.420;-0.040;2023-05-07T00:06:47;7.35;;;1.60;;
45836;SDS011;31548;51.420;-0.040;2023-05-07T00:09:15;5.75;;;2.40;;
45836;SDS011;31548;51.420;-0.040;2023-05-07T00:11:43;6.82;;;1.55;;
45836;SDS011;31548;51.420;-0.040;2023-05-07T00:14:11;3.50;;;1.75;;
45836;SDS011;31548;51.420;-0.040;2023-05-07T00:16:38;1.95;;;1.05;;
45836;SDS011;31548;51.420;-0.040;2023-05-07T00:19:05;4.68;;;1.83;;
45836;SDS011;31548;51.420;-0.040;2023-05-07T00:21:33;1.48;;;1.08;;
45836;SDS011;31548;51.420;-0.040;2023-05-07T00:24:01;6.10;;;1.10;;
45836;SDS011;31548;51.420;-0.040;2023-05-07T00:26:28;1.88;;;0.70;;
45836;SDS011;31548;51.420;-0.040;2023-05-07T00:28:56;1.48;;;0.90;;
45836;SDS011;31548;51.420;-0.040;2023-05-07T00:31:24;1.10;;;0.60;;
45836;SDS011;31548;51.420;-0.040;2023-05-07T00:33:51;1.48;;;0.80;;
45836;SDS011;31548;51.420;-0.040;2023-05-07T00:36:19;0.60;;;0.60;;
45836;SDS011;31548;51.420;-0.040;2023-05-07T00:38:46;0.80;;;0.63;;
45836;SDS011;31548;51.420;-0.040;2023-05-07T00:41:14;2.08;;;0.50;;
45836;SDS011;31548;51.420;-0.040;2023-05-07T00:43:42;0.75;;;0.60;;
45836;SDS011;31548;51.420;-0.040;2023-05-07T00:46:10;1.52;;;0.70;;
45836;SDS011;31548;51.420;-0.040;2023-05-07T00:48:39;1.08;;;0.80;;
45836;SDS011;31548;51.420;-0.040;2023-05-07T00:51:07;2.08;;;0.95;;
45836;SDS011;31548;51.420;-0.040;2023-05-07T00:53:36;1.30;;;0.80;;
45836;SDS011;31548;51.420;-0.040;2023-05-07T00:56:03;1.63;;;0.90;;
45836;SDS011;31548;51.420;-0.040;2023-05-07T00:58:33;1.65;;;0.90;;
45836;SDS011;31548;51.420;-0.040;2023-05-07T01:01:01;3.25;;;0.90;;
45836;SDS011;31548;51.420;-0.040;2023-05-07T01:03:29;2.65;;;0.90;;
45836;SDS011;31548;51.420;-0.040;2023-05-07T01:05:57;1.30;;;0.90;;
45836;SDS011;31548;51.420;-0.040;2023-05-07T01:08:27;3.63;;;0.80;;
45836;SDS011;31548;51.420;-0.040;2023-05-07T01:10:56;2.92;;;0.93;;
45836;SDS011;31548;51.420;-0.040;2023-05-07T01:13:24;1.65;;;0.80;;
45836;SDS011;31548;51.420;-0.040;2023-05-07T01:15:52;1.65;;;1.52;;
45836;SDS011;31548;51.420;-0.040;2023-05-07T01:18:20;2.40;;;1.42;;
45836;SDS011;31548;51.420;-0.040;2023-05-07T01:20:48;0.98;;;0.70;;
45836;SDS011;31548;51.420;-0.040;2023-05-07T01:23:16;2.00;;;1.10;;
45836;SDS011;31548;51.420;-0.040;2023-05-07T01:25:51;2.17;;;0.82;;
45836;SDS011;31548;51.420;-0.040;2023-05-07T01:28:21;3.35;;;1.30;;
45836;SDS011;31548;51.420;-0.040;2023-05-07T01:30:52;4.40;;;1.10;;
45836;SDS011;31548;51.420;-0.040;2023-05-07T01:33:22;1.67;;;1.17;;
45836;SDS011;31548;51.420;-0.040;2023-05-07T01:35:53;2.25;;;1.05;;
45836;SDS011;31548;51.420;-0.040;2023-05-07T01:38:21;2.80;;;1.20;;
45836;SDS011;31548;51.420;-0.040;2023-05-07T01:40:50;1.25;;;1.00;;
45836;SDS011;31548;51.420;-0.040;2023-05-07T01:43:18;2.58;;;1.25;;
45836;SDS011;31548;51.420;-0.040;2023-05-07T01:45:46;1.80;;;1.45;;
45836;SDS011;31548;51.420;-0.040;2023-05-07T01:48:15;2.75;;;1.52;;
45836;SDS011;31548;51.420;-0.040;2023-05-07T01:50:44;2.47;;;1.17;;
45836;SDS011;31548;51.420;-0.040;2023-05-07T01:53:12;1.58;;;1.20;;
45836;SDS011;31548;51.420;-0.040;2023-05-07T01:55:39;4.53;;;1.20;;
45836;SDS011;31548;51.420;-0.040;2023-05-07T01:58:07;1.40;;;1.20;;
45836;SDS011;31548;51.420;-0.040;2023-05-07T02:00:35;1.83;;;1.30;;
45836;SDS011;31548;51.420;-0.040;2023-05-07T02:03:04;4.10;;;2.13;;
45836;SDS011;31548;51.420;-0.040;2023-05-07T02:05:45;2.72;;;1.50;;
45836;SDS011;31548;51.420;-0.040;2023-05-07T02:08:27;5.75;;;1.70;;
45836;SDS011;31548;51.420;-0.040;2023-05-07T02:10:55;1.52;;;1.40;;
45836;SDS011;31548;51.420;-0.040;2023-05-07T02:13:24;3.28;;;1.35;;
45836;SDS011;31548;51.420;-0.040;2023-05-07T02:15:52;2.45;;;1.52;;
45836;SDS011;31548;51.420;-0.040;2023-05-07T02:18:21;5.38;;;2.45;;
45836;SDS011;31548;51.420;-0.040;2023-05-07T02:20:49;3.75;;;2.50;;
45836;SDS011;31548;51.420;-0.040;2023-05-07T02:23:17;2.90;;;2.47;;
45836;SDS011;31548;51.420;-0.040;2023-05-07T02:25:44;6.90;;;3.33;;
45836;SDS011;31548;51.420;-0.040;2023-05-07T02:28:13;5.68;;;2.42;;
45836;SDS011;31548;51.420;-0.040;2023-05-07T02:30:49;3.90;;;2.75;;
45836;SDS011;31548;51.420;-0.040;2023-05-07T02:33:18;3.42;;;2.88;;
45836;SDS011;31548;51.420;-0.040;2023-05-07T02:35:46;5.65;;;2.00;;
45836;SDS011;31548;51.420;-0.040;2023-05-07T02:38:15;6.18;;;3.05;;
45836;SDS011;31548;51.420;-0.040;2023-05-07T02:40:43;3.78;;;2.30;;
45836;SDS011;31548;51.420;-0.040;2023-05-07T02:43:10;3.83;;;2.50;;
45836;SDS011;31548;51.420;-0.040;2023-05-07T02:45:42;4.88;;;3.00;;
45836;SDS011;31548;51.420;-0.040;2023-05-07T02:48:10;4.43;;;3.47;;
45836;SDS011;31548;51.420;-0.040;2023-05-07T02:50:38;4.45;;;2.92;;
45836;SDS011;31548;51.420;-0.040;2023-05-07T02:53:06;4.07;;;2.72;;
45836;SDS011;31548;51.420;-0.040;2023-05-07T02:55:33;4.43;;;2.60;;
45836;SDS011;31548;51.420;-0.040;2023-05-07T02:58:01;3.20;;;2.28;;
45836;SDS011;31548;51.420;-0.040;2023-05-07T03:00:31;4.05;;;2.35;;
45836;SDS011;31548;51.420;-0.040;2023-05-07T03:03:19;4.03;;;2.70;;
45836;SDS011;31548;51.420;-0.040;2023-05-07T03:05:47;4.22;;;3.10;;
45836;SDS011;31548;51.420;-0.040;2023-05-07T03:08:14;3.05;;;2.38;;
45836;SDS011;31548;51.420;-0.040;2023-05-07T03:10:42;5.03;;;3.53;;
45836;SDS011;31548;51.420;-0.040;2023-05-07T03:13:09;4.45;;;2.67;;
45836;SDS011;31548;51.420;-0.040;2023-05-07T03:15:37;6.28;;;2.83;;
45836;SDS011;31548;51.420;-0.040;2023-05-07T03:18:05;4.57;;;2.55;;
45836;SDS011;31548;51.420;-0.040;2023-05-07T03:20:33;4.90;;;3.08;;
45836;SDS011;31548;51.420;-0.040;2023-05-07T03:23:01;3.15;;;2.05;;
45836;SDS011;31548;51.420;-0.040;2023-05-07T03:25:29;3.78;;;2.53;;
45836;SDS011;31548;51.420;-0.040;2023-05-07T03:27:57;4.60;;;2.30;;
45836;SDS011;31548;51.420;-0.040;2023-05-07T03:30:31;3.53;;;2.45;;
45836;SDS011;31548;51.420;-0.040;2023-05-07T03:32:59;5.38;;;2.88;;
45836;SDS011;31548;51.420;-0.040;2023-05-07T03:35:27;4.53;;;2.90;;
45836;SDS011;31548;51.420;-0.040;2023-05-07T03:37:55;4.30;;;2.97;;
45836;SDS011;31548;51.420;-0.040;2023-05-07T03:40:22;5.75;;;3.35;;
45836;SDS011;31548;51.420;-0.040;2023-05-07T03:42:53;6.38;;;3.35;;
45836;SDS011;31548;51.420;-0.040;2023-05-07T03:45:23;5.47;;;3.22;;
45836;SDS011;31548;51.420;-0.040;2023-05-07T03:48:00;9.15;;;3.63;;
45836;SDS011;31548;51.420;-0.040;2023-05-07T03:50:28;5.30;;;3.05;;
45836;SDS011;31548;51.420;-0.040;2023-05-07T03:52:55;4.00;;;2.35;;
45836;SDS011;31548;51.420;-0.040;2023-05-07T03:55:23;5.10;;;3.40;;
45836;SDS011;31548;51.420;-0.040;2023-05-07T03:57:56;3.50;;;2.72;;
45836;SDS011;31548;51.420;-0.040;2023-05-07T04:00:26;7.38;;;2.95;;
45836;SDS011;31548;51.420;-0.040;2023-05-07T04:02:58;7.75;;;3.13;;
45836;SDS011;31548;51.420;-0.040;2023-05-07T04:05:29;4.45;;;2.67;;
45836;SDS011;31548;51.420;-0.040;2023-05-07T04:08:01;6.68;;;3.80;;
45836;SDS011;31548;51.420;-0.040;2023-05-07T04:10:36;4.07;;;1.88;;
45836;SDS011;31548;51.420;-0.040;2023-05-07T04:13:07;4.85;;;2.75;;
45836;SDS011;31548;51.420;-0.040;2023-05-07T04:15:36;5.05;;;2.80;;
45836;SDS011;31548;51.420;-0.040;2023-05-07T04:18:07;5.68;;;2.95;;
45836;SDS011;31548;51.420;-0.040;2023-05-07T04:20:35;3.03;;;2.38;;
45836;SDS011;31548;51.420;-0.040;2023-05-07T04:23:09;4.47;;;2.75;;
45836;SDS011;31548;51.420;-0.040;2023-05-07T04:25:37;5.50;;;2.10;;
45836;SDS011;31548;51.420;-0.040;2023-05-07T04:28:10;3.47;;;2.42;;
45836;SDS011;31548;51.420;-0.040;2023-05-07T04:30:40;3.30;;;2.63;;
45836;SDS011;31548;51.420;-0.040;2023-05-07T04:33:08;4.18;;;2.47;;
45836;SDS011;31548;51.420;-0.040;2023-05-07T04:35:37;5.13;;;2.35;;
45836;SDS011;31548;51.420;-0.040;2023-05-07T04:38:05;5.03;;;2.70;;
45836;SDS011;31548;51.420;-0.040;2023-05-07T04:40:35;4.53;;;3.47;;
45836;SDS011;31548;51.420;-0.040;2023-05-07T04:43:03;6.30;;;3.25;;
45836;SDS011;31548;51.420;-0.040;2023-05-07T04:45:38;4.22;;;2.90;;
45836;SDS011;31548;51.420;-0.040;2023-05-07T04:48:08;4.78;;;2.47;;
45836;SDS011;31548;51.420;-0.040;2023-05-07T04:50:39;6.28;;;3.13;;
45836;SDS011;31548;51.420;-0.040;2023-05-07T04:53:07;9.68;;;4.35;;
45836;SDS011;31548;51.420;-0.040;2023-05-07T04:55:35;7.68;;;4.05;;
45836;SDS011;31548;51.420;-0.040;2023-05-07T04:58:03;5.20;;;3.65;;
45836;SDS011;31548;51.420;-0.040;2023-05-07T05:00:34;4.72;;;3.35;;
45836;SDS011;31548;51.420;-0.040;2023-05-07T05:03:04;4.63;;;3.45;;
45836;SDS011;31548;51.420;-0.040;2023-05-07T05:05:33;4.65;;;3.33;;
45836;SDS011;31548;51.420;-0.040;2023-05-07T05:08:01;5.95;;;3.28;;
45836;SDS011;31548;51.420;-0.040;2023-05-07T05:10:29;6.10;;;3.42;;
45836;SDS011;31548;51.420;-0.040;2023-05-07T05:12:57;4.70;;;3.33;;
45836;SDS011;31548;51.420;-0.040;2023-05-07T05:15:26;8.98;;;5.82;;
45836;SDS011;31548;51.420;-0.040;2023-05-07T05:17:53;7.57;;;4.85;;
45836;SDS011;31548;51.420;-0.040;2023-05-07T05:20:21;7.28;;;4.28;;
45836;SDS011;31548;51.420;-0.040;2023-05-07T05:22:49;9.40;;;4.75;;
45836;SDS011;31548;51.420;-0.040;2023-05-07T05:25:16;8.55;;;5.07;;
45836;SDS011;31548;51.420;-0.040;2023-05-07T05:27:45;11.50;;;5.45;;
45836;SDS011;31548;51.420;-0.040;2023-05-07T05:30:13;5.70;;;3.88;;
45836;SDS011;31548;51.420;-0.040;2023-05-07T05:32:43;9.27;;;4.78;;
45836;SDS011;31548;51.420;-0.040;2023-05-07T05:35:11;7.95;;;4.40;;
45836;SDS011;31548;51.420;-0.040;2023-05-07T05:37:40;9.85;;;5.22;;
45836;SDS011;31548;51.420;-0.040;2023-05-07T05:40:08;8.63;;;5.47;;
45836;SDS011;31548;51.420;-0.040;2023-05-07T05:42:36;6.65;;;4.25;;
45836;SDS011;31548;51.420;-0.040;2023-05-07T05:45:04;9.30;;;4.55;;
45836;SDS011;31548;51.420;-0.040;2023-05-07T05:47:33;8.48;;;4.13;;
45836;SDS011;31548;51.420;-0.040;2023-05-07T05:50:01;10.93;;;4.63;;
45836;SDS011;31548;51.420;-0.040;2023-05-07T05:52:30;10.60;;;4.45;;
45836;SDS011;31548;51.420;-0.040;2023-05-07T05:54:58;4.93;;;3.38;;
45836;SDS011;31548;51.420;-0.040;2023-05-07T05:57:26;7.30;;;4.95;;
45836;SDS011;31548;51.420;-0.040;2023-05-07T05:59:55;7.15;;;4.20;;
45836;SDS011;31548;51.420;-0.040;2023-05-07T06:02:23;8.05;;;3.67;;
45836;SDS011;31548;51.420;-0.040;2023-05-07T06:04:52;6.65;;;3.70;;
45836;SDS011;31548;51.420;-0.040;2023-05-07T06:07:21;5.82;;;3.20;;
45836;SDS011;31548;51.420;-0.040;2023-05-07T06:09:49;4.88;;;2.72;;
45836;SDS011;31548;51.420;-0.040;2023-05-07T06:12:17;7.13;;;3.85;;
45836;SDS011;31548;51.420;-0.040;2023-05-07T06:14:46;8.75;;;3.50;;
45836;SDS011;31548;51.420;-0.040;2023-05-07T06:17:15;7.55;;;3.80;;
45836;SDS011;31548;51.420;-0.040;2023-05-07T06:19:46;5.68;;;3.30;;
45836;SDS011;31548;51.420;-0.040;2023-05-07T06:22:17;4.88;;;3.05;;
45836;SDS011;31548;51.420;-0.040;2023-05-07T06:24:45;7.63;;;4.55;;
45836;SDS011;31548;51.420;-0.040;2023-05-07T06:27:13;9.48;;;4.28;;
45836;SDS011;31548;51.420;-0.040;2023-05-07T06:29:40;8.25;;;4.32;;
45836;SDS011;31548;51.420;-0.040;2023-05-07T06:32:13;5.47;;;3.40;;
45836;SDS011;31548;51.420;-0.040;2023-05-07T06:34:43;7.03;;;2.80;;
45836;SDS011;31548;51.420;-0.040;2023-05-07T06:37:12;7.97;;;3.42;;
45836;SDS011;31548;51.420;-0.040;2023-05-07T06:40:02;6.65;;;4.03;;
45836;SDS011;31548;51.420;-0.040;2023-05-07T06:42:31;10.38;;;3.72;;
45836;SDS011;31548;51.420;-0.040;2023-05-07T06:45:15;8.38;;;3.72;;
45836;SDS011;31548;51.420;-0.040;2023-05-07T06:47:43;7.53;;;3.15;;
45836;SDS011;31548;51.420;-0.040;2023-05-07T06:50:13;6.13;;;2.45;;
45836;SDS011;31548;51.420;-0.040;2023-05-07T06:52:43;12.90;;;5.40;;
45836;SDS011;31548;51.420;-0.040;2023-05-07T06:55:11;4.60;;;2.63;;
45836;SDS011;31548;51.420;-0.040;2023-05-07T06:57:39;4.43;;;2.67;;
45836;SDS011;31548;51.420;-0.040;2023-05-07T07:00:06;6.47;;;3.15;;
45836;SDS011;31548;51.420;-0.040;2023-05-07T07:02:45;7.20;;;4.28;;
45836;SDS011;31548;51.420;-0.040;2023-05-07T07:05:16;7.70;;;3.70;;
45836;SDS011;31548;51.420;-0.040;2023-05-07T07:07:43;4.15;;;2.53;;
45836;SDS011;31548;51.420;-0.040;2023-05-07T07:10:13;7.47;;;3.05;;
45836;SDS011;31548;51.420;-0.040;2023-05-07T07:12:41;5.60;;;2.88;;
45836;SDS011;31548;51.420;-0.040;2023-05-07T07:15:08;8.32;;;3.42;;
45836;SDS011;31548;51.420;-0.040;2023-05-07T07:17:36;6.07;;;3.40;;
45836;SDS011;31548;51.420;-0.040;2023-05-07T07:20:05;7.65;;;3.15;;
45836;SDS011;31548;51.420;-0.040;2023-05-07T07:22:33;4.55;;;2.95;;
45836;SDS011;31548;51.420;-0.040;2023-05-07T07:25:01;6.32;;;3.55;;
45836;SDS011;31548;51.420;-0.040;2023-05-07T07:27:29;7.82;;;3.83;;
45836;SDS011;31548;51.420;-0.040;2023-05-07T07:29:57;6.82;;;3.60;;
45836;SDS011;31548;51.420;-0.040;2023-05-07T07:32:30;5.18;;;4.03;;
45836;SDS011;31548;51.420;-0.040;2023-05-07T07:34:59;6.60;;;3.83;;
45836;SDS011;31548;51.420;-0.040;2023-05-07T07:37:27;7.32;;;3.47;;
45836;SDS011;31548;51.420;-0.040;2023-05-07T07:39:56;7.18;;;3.78;;
45836;SDS011;31548;51.420;-0.040;2023-05-07T07:42:24;8.18;;;4.78;;
45836;SDS011;31548;51.420;-0.040;2023-05-07T07:44:52;7.40;;;4.45;;
45836;SDS011;31548;51.420;-0.040;2023-05-07T07:47:22;7.05;;;4.38;;
45836;SDS011;31548;51.420;-0.040;2023-05-07T07:49:51;7.20;;;4.57;;
45836;SDS011;31548;51.420;-0.040;2023-05-07T07:52:18;8.82;;;4.25;;
45836;SDS011;31548;51.420;-0.040;2023-05-07T07:54:47;5.18;;;3.58;;
45836;SDS011;31548;51.420;-0.040;2023-05-07T07:57:14;7.57;;;4.10;;
45836;SDS011;31548;51.420;-0.040;2023-05-07T07:59:42;4.78;;;3.45;;
45836;SDS011;31548;51.420;-0.040;2023-05-07T08:02:12;6.45;;;4.53;;
45836;SDS011;31548;51.420;-0.040;2023-05-07T08:04:39;8.73;;;4.55;;
45836;SDS011;31548;51.420;-0.040;2023-05-07T08:07:09;6.35;;;4.22;;
45836;SDS011;31548;51.420;-0.040;2023-05-07T08:09:40;12.88;;;6.18;;
45836;SDS011;31548;51.420;-0.040;2023-05-07T08:12:09;10.57;;;6.38;;
45836;SDS011;31548;51.420;-0.040;2023-05-07T08:14:37;14.35;;;8.75;;
45836;SDS011;31548;51.420;-0.040;2023-05-07T08:17:06;10.60;;;7.25;;
45836;SDS011;31548;51.420;-0.040;2023-05-07T08:19:34;10.23;;;5.18;;
45836;SDS011;31548;51.420;-0.040;2023-05-07T08:22:03;8.68;;;6.43;;
45836;SDS011;31548;51.420;-0.040;2023-05-07T08:24:33;10.32;;;6.72;;
45836;SDS011;31548;51.420;-0.040;2023-05-07T08:27:01;6.45;;;4.90;;
45836;SDS011;31548;51.420;-0.040;2023-05-07T08:29:29;8.60;;;4.95;;
45836;SDS011;31548;51.420;-0.040;2023-05-07T08:31:58;9.65;;;4.40;;
45836;SDS011;31548;51.420;-0.040;2023-05-07T08:34:26;8.07;;;5.18;;
45836;SDS011;31548;51.420;-0.040;2023-05-07T08:36:55;5.82;;;3.25;;
45836;SDS011;31548;51.420;-0.040;2023-05-07T08:39:24;5.95;;;4.20;;
45836;SDS011;31548;51.420;-0.040;2023-05-07T08:41:55;7.20;;;4.45;;
45836;SDS011;31548;51.420;-0.040;2023-05-07T08:44:26;8.90;;;4.15;;
45836;SDS011;31548;51.420;-0.040;2023-05-07T08:46:57;8.52;;;4.95;;
45836;SDS011;31548;51.420;-0.040;2023-05-07T08:49:29;4.85;;;2.92;;
45836;SDS011;31548;51.420;-0.040;2023-05-07T08:51:56;4.90;;;3.05;;
45836;SDS011;31548;51.420;-0.040;2023-05-07T08:54:24;4.78;;;3.30;;
45836;SDS011;31548;51.420;-0.040;2023-05-07T08:56:53;5.75;;;2.47;;
45836;SDS011;31548;51.420;-0.040;2023-05-07T08:59:20;3.47;;;2.13;;
45836;SDS011;31548;51.420;-0.040;2023-05-07T09:01:48;3.35;;;2.38;;
45836;SDS011;31548;51.420;-0.040;2023-05-07T09:04:16;7.40;;;3.03;;
45836;SDS011;31548;51.420;-0.040;2023-05-07T09:06:44;4.07;;;2.65;;
45836;SDS011;31548;51.420;-0.040;2023-05-07T09:09:14;4.45;;;2.13;;
45836;SDS011;31548;51.420;-0.040;2023-05-07T09:11:46;6.18;;;2.97;;
45836;SDS011;31548;51.420;-0.040;2023-05-07T09:14:17;7.35;;;3.03;;
45836;SDS011;31548;51.420;-0.040;2023-05-07T09:16:49;5.15;;;2.85;;
45836;SDS011;31548;51.420;-0.040;2023-05-07T09:19:22;3.78;;;2.53;;
45836;SDS011;31548;51.420;-0.040;2023-05-07T09:22:01;3.65;;;2.58;;
45836;SDS011;31548;51.420;-0.040;2023-05-07T09:24:38;3.33;;;2.20;;
45836;SDS011;31548;51.420;-0.040;2023-05-07T09:27:09;3.20;;;1.92;;
45836;SDS011;31548;51.420;-0.040;2023-05-07T09:29:41;2.80;;;1.80;;
45836;SDS011;31548;51.420;-0.040;2023-05-07T09:32:10;3.47;;;2.30;;
45836;SDS011;31548;51.420;-0.040;2023-05-07T09:34:37;3.33;;;1.70;;
45836;SDS011;31548;51.420;-0.040;2023-05-07T09:37:06;3.45;;;1.80;;
45836;SDS011;31548;51.420;-0.040;2023-05-07T09:39:43;2.10;;;1.80;;
45836;SDS011;31548;51.420;-0.040;2023-05-07T09:42:16;2.38;;;1.40;;
45836;SDS011;31548;51.420;-0.040;2023-05-07T09:44:52;3.15;;;1.88;;
45836;SDS011;31548;51.420;-0.040;2023-05-07T09:47:23;2.13;;;1.38;;
45836;SDS011;31548;51.420;-0.040;2023-05-07T09:49:55;3.42;;;1.80;;
45836;SDS011;31548;51.420;-0.040;2023-05-07T09:52:25;2.15;;;1.65;;
45836;SDS011;31548;51.420;-0.040;2023-05-07T09:55:02;2.13;;;1.35;;
45836;SDS011;31548;51.420;-0.040;2023-05-07T09:57:31;4.60;;;1.75;;
45836;SDS011;31548;51.420;-0.040;2023-05-07T10:00:04;4.07;;;1.38;;
45836;SDS011;31548;51.420;-0.040;2023-05-07T10:02:49;2.60;;;1.63;;
45836;SDS011;31548;51.420;-0.040;2023-05-07T10:05:31;4.22;;;2.72;;
45836;SDS011;31548;51.420;-0.040;2023-05-07T10:08:00;2.90;;;1.88;;
45836;SDS011;31548;51.420;-0.040;2023-05-07T10:10:32;5.82;;;2.28;;
45836;SDS011;31548;51.420;-0.040;2023-05-07T10:13:02;3.30;;;1.58;;
45836;SDS011;31548;51.420;-0.040;2023-05-07T10:15:33;4.43;;;2.50;;
45836;SDS011;31548;51.420;-0.040;2023-05-07T10:18:05;4.70;;;1.48;;
45836;SDS011;31548;51.420;-0.040;2023-05-07T10:20:35;1.95;;;1.05;;
45836;SDS011;31548;51.420;-0.040;2023-05-07T10:23:05;2.25;;;1.23;;
45836;SDS011;31548;51.420;-0.040;2023-05-07T10:25:41;1.88;;;1.30;;
45836;SDS011;31548;51.420;-0.040;2023-05-07T10:28:16;2.35;;;1.15;;
45836;SDS011;31548;51.420;-0.040;2023-05-07T10:33:51;2.63;;;1.70;;
45836;SDS011;31548;51.420;-0.040;2023-05-07T10:36:22;1.60;;;1.50;;
45836;SDS011;31548;51.420;-0.040;2023-05-07T10:38:52;4.32;;;1.45;;
45836;SDS011;31548;51.420;-0.040;2023-05-07T10:41:20;2.60;;;1.70;;
45836;SDS011;31548;51.420;-0.040;2023-05-07T10:43:49;1.63;;;1.50;;
45836;SDS011;31548;51.420;-0.040;2023-05-07T10:46:25;2.97;;;1.27;;
45836;SDS011;31548;51.420;-0.040;2023-05-07T10:49:15;3.28;;;1.83;;
45836;SDS011;31548;51.420;-0.040;2023-05-07T10:52:00;1.45;;;1.20;;
45836;SDS011;31548;51.420;-0.040;2023-05-07T10:57:44;2.17;;;1.60;;
45836;SDS011;31548;51.420;-0.040;2023-05-07T11:05:36;3.17;;;2.00;;
45836;SDS011;31548;51.420;-0.040;2023-05-07T11:08:14;3.13;;;1.85;;
45836;SDS011;31548;51.420;-0.040;2023-05-07T11:10:55;4.78;;;1.67;;
45836;SDS011;31548;51.420;-0.040;2023-05-07T11:13:56;8.15;;;1.92;;
45836;SDS011;31548;51.420;-0.040;2023-05-07T11:16:40;2.40;;;1.02;;
45836;SDS011;31548;51.420;-0.040;2023-05-07T11:22:36;2.17;;;1.20;;
45836;SDS011;31548;51.420;-0.040;2023-05-07T11:25:29;3.13;;;1.17;;
45836;SDS011;31548;51.420;-0.040;2023-05-07T11:28:17;1.80;;;1.42;;
45836;SDS011;31548;51.420;-0.040;2023-05-07T11:30:54;2.15;;;1.48;;
45836;SDS011;31548;51.420;-0.040;2023-05-07T11:33:23;2.40;;;2.20;;
45836;SDS011;31548;51.420;-0.040;2023-05-07T11:35:55;2.03;;;1.65;;
45836;SDS011;31548;51.420;-0.040;2023-05-07T11:38:30;1.88;;;1.40;;
45836;SDS011;31548;51.420;-0.040;2023-05-07T11:41:02;3.08;;;2.22;;
45836;SDS011;31548;51.420;-0.040;2023-05-07T11:43:32;4.55;;;2.47;;
45836;SDS011;31548;51.420;-0.040;2023-05-07T11:46:07;3.85;;;3.30;;
45836;SDS011;31548;51.420;-0.040;2023-05-07T11:48:38;4.28;;;2.88;;
45836;SDS011;31548;51.420;-0.040;2023-05-07T11:51:06;2.88;;;2.05;;
45836;SDS011;31548;51.420;-0.040;2023-05-07T11:53:42;3.70;;;1.73;;
45836;SDS011;31548;51.420;-0.040;2023-05-07T11:56:11;2.28;;;1.75;;
45836;SDS011;31548;51.420;-0.040;2023-05-07T11:58:39;3.65;;;1.85;;
45836;SDS011;31548;51.420;-0.040;2023-05-07T12:01:11;4.00;;;2.45;;
45836;SDS011;31548;51.420;-0.040;2023-05-07T12:03:39;5.80;;;1.55;;
45836;SDS011;31548;51.420;-0.040;2023-05-07T12:06:10;2.78;;;1.88;;
45836;SDS011;31548;51.420;-0.040;2023-05-07T12:08:39;2.42;;;1.30;;
45836;SDS011;31548;51.420;-0.040;2023-05-07T12:11:21;3.80;;;2.50;;
45836;SDS011;31548;51.420;-0.040;2023-05-07T12:13:50;2.17;;;1.70;;
45836;SDS011;31548;51.420;-0.040;2023-05-07T12:16:18;2.03;;;1.80;;
45836;SDS011;31548;51.420;-0.040;2023-05-07T12:18:46;2.25;;;1.67;;
45836;SDS011;31548;51.420;-0.040;2023-05-07T12:21:13;3.15;;;2.20;;
45836;SDS011;31548;51.420;-0.040;2023-05-07T12:23:41;2.58;;;2.05;;
45836;SDS011;31548;51.420;-0.040;2023-05-07T12:26:09;4.57;;;1.98;;
45836;SDS011;31548;51.420;-0.040;2023-05-07T12:28:37;3.08;;;1.98;;
45836;SDS011;31548;51.420;-0.040;2023-05-07T12:31:06;3.25;;;2.00;;
45836;SDS011;31548;51.420;-0.040;2023-05-07T12:33:34;1.85;;;1.63;;
45836;SDS011;31548;51.420;-0.040;2023-05-07T12:36:03;3.25;;;2.17;;
45836;SDS011;31548;51.420;-0.040;2023-05-07T12:38:39;3.92;;;3.15;;
45836;SDS011;31548;51.420;-0.040;2023-05-07T12:41:08;2.58;;;1.80;;
45836;SDS011;31548;51.420;-0.040;2023-05-07T12:43:36;4.38;;;1.70;;
45836;SDS011;31548;51.420;-0.040;2023-05-07T12:46:09;2.88;;;1.65;;
45836;SDS011;31548;51.420;-0.040;2023-05-07T12:48:37;5.13;;;2.13;;
45836;SDS011;31548;51.420;-0.040;2023-05-07T12:51:10;4.18;;;2.13;;
45836;SDS011;31548;51.420;-0.040;2023-05-07T12:53:40;3.25;;;1.40;;
45836;SDS011;31548;51.420;-0.040;2023-05-07T12:56:11;2.35;;;1.92;;
45836;SDS011;31548;51.420;-0.040;2023-05-07T12:58:38;2.55;;;1.70;;
45836;SDS011;31548;51.420;-0.040;2023-05-07T13:01:07;2.05;;;1.85;;
45836;SDS011;31548;51.420;-0.040;2023-05-07T13:03:37;2.88;;;2.17;;
45836;SDS011;31548;51.420;-0.040;2023-05-07T13:06:09;2.75;;;1.45;;
45836;SDS011;31548;51.420;-0.040;2023-05-07T13:08:37;2.63;;;1.95;;
45836;SDS011;31548;51.420;-0.040;2023-05-07T13:11:10;2.70;;;1.63;;
45836;SDS011;31548;51.420;-0.040;2023-05-07T13:13:38;2.20;;;2.00;;
45836;SDS011;31548;51.420;-0.040;2023-05-07T13:16:07;3.05;;;1.70;;
45836;SDS011;31548;51.420;-0.040;2023-05-07T13:18:37;2.33;;;1.75;;
45836;SDS011;31548;51.420;-0.040;2023-05-07T13:21:06;2.20;;;1.75;;
45836;SDS011;31548;51.420;-0.040;2023-05-07T13:23:34;1.63;;;1.35;;
45836;SDS011;31548;51.420;-0.040;2023-05-07T13:26:01;2.47;;;1.30;;
45836;SDS011;31548;51.420;-0.040;2023-05-07T13:28:40;1.45;;;1.17;;
45836;SDS011;31548;51.420;-0.040;2023-05-07T13:31:08;1.45;;;1.23;;
45836;SDS011;31548;51.420;-0.040;2023-05-07T13:33:36;3.70;;;1.40;;
45836;SDS011;31548;51.420;-0.040;2023-05-07T13:36:03;2.10;;;1.30;;
45836;SDS011;31548;51.420;-0.040;2023-05-07T13:38:32;1.60;;;0.88;;
45836;SDS011;31548;51.420;-0.040;2023-05-07T13:40:59;2.45;;;1.27;;
45836;SDS011;31548;51.420;-0.040;2023-05-07T13:43:26;2.65;;;1.10;;
45836;SDS011;31548;51.420;-0.040;2023-05-07T13:45:54;1.63;;;1.15;;
45836;SDS011;31548;51.420;-0.040;2023-05-07T13:48:21;1.75;;;1.00;;
45836;SDS011;31548;51.420;-0.040;2023-05-07T13:50:49;2.00;;;1.05;;
45836;SDS011;31548;51.420;-0.040;2023-05-07T13:53:16;1.33;;;1.00;;
45836;SDS011;31548;51.420;-0.040;2023-05-07T13:55:44;1.30;;;0.80;;
45836;SDS011;31548;51.420;-0.040;2023-05-07T13:58:13;2.00;;;1.15;;
45836;SDS011;31548;51.420;-0.040;2023-05-07T14:00:40;0.90;;;0.73;;
45836;SDS011;31548;51.420;-0.040;2023-05-07T14:03:07;1.73;;;0.60;;
45836;SDS011;31548;51.420;-0.040;2023-05-07T14:05:35;1.23;;;0.70;;
45836;SDS011;31548;51.420;-0.040;2023-05-07T14:08:02;1.05;;;0.60;;
45836;SDS011;31548;51.420;-0.040;2023-05-07T14:10:31;2.75;;;1.00;;
45836;SDS011;31548;51.420;-0.040;2023-05-07T14:13:01;1.75;;;0.90;;
45836;SDS011;31548;51.420;-0.040;2023-05-07T14:15:28;1.15;;;0.85;;
45836;SDS011;31548;51.420;-0.040;2023-05-07T16:11:21;1.85;;;0.32;;
45836;SDS011;31548;51.420;-0.040;2023-05-07T16:13:49;1.00;;;0.43;;
45836;SDS011;31548;51.420;-0.040;2023-05-07T16:16:16;0.63;;;0.30;;
45836;SDS011;31548;51.420;-0.040;2023-05-07T16:18:43;1.33;;;0.40;;
45836;SDS011;31548;51.420;-0.040;2023-05-07T16:21:11;1.27;;;0.30;;
45836;SDS011;31548;51.420;-0.040;2023-05-07T16:23:38;1.67;;;0.40;;
45836;SDS011;31548;51.420;-0.040;2023-05-07T16:26:06;1.08;;;0.40;;
45836;SDS011;31548;51.420;-0.040;2023-05-07T16:28:33;0.40;;;0.40;;
45836;SDS011;31548;51.420;-0.040;2023-05-07T16:31:00;0.70;;;0.60;;
45836;SDS011;31548;51.420;-0.040;2023-05-07T16:33:27;0.75;;;0.30;;
45836;SDS011;31548;51.420;-0.040;2023-05-07T16:35:55;0.77;;;0.30;;
45836;SDS011;31548;51.420;-0.040;2023-05-07T16:38:22;1.98;;;0.40;;
45836;SDS011;31548;51.420;-0.040;2023-05-07T16:40:49;1.20;;;0.40;;
45836;SDS011;31548;51.420;-0.040;2023-05-07T16:43:17;16.02;;;5.22;;
45836;SDS011;31548;51.420;-0.040;2023-05-07T16:45:44;3.92;;;0.90;;
45836;SDS011;31548;51.420;-0.040;2023-05-07T16:48:12;1.45;;;0.50;;
45836;SDS011;31548;51.420;-0.040;2023-05-07T16:50:39;1.58;;;0.50;;
45836;SDS011;31548;51.420;-0.040;2023-05-07T16:53:07;0.50;;;0.40;;
45836;SDS011;31548;51.420;-0.040;2023-05-07T16:55:35;7.13;;;0.35;;
45836;SDS011;31548;51.420;-0.040;2023-05-07T16:58:05;0.45;;;0.30;;